Startpagina
METAR-TAF:

METAR-TAF

Vliegvelden :

Asunción, Paraguay

Aeropuerto Internacional Silvio Pettirossi

breedte: 25-16S, lengte: 057-38W, hoogte: 101 m

Actueel weer

Dit bericht is 43 minuten geleden gemaakt, om 00:00 UTC
Wind 7 kt uit het oosten
Temperatuur 26°C
Vochtigheid 39%
Druk 1017 hPa
Zicht: 7000 m

METAR: SGAS 260000Z 09007KT 7000 NSC 26/11 Q1017

Tijdstip: 20:43 (00:43 UTC)

Verwachting

Dit bericht is 2 uur en het 33 minuten geleden gemaakt, om 22:10 UTC
Verwachting geldig van 26 om 00 UTC tot 27 om 00 UTC
Wind 4 kt uit het oosten
Zicht: 6000 m
Wijzigt naar
van 26 om 05 UTC tot 26 om 09 UTC
Wind 9 kt uit het noordnoordoosten
Zicht 10 km of meer
geen wolken onder 1500 m en geen cumulonimbus

TAF: SGAS 252210Z 2600/2700 08004KT 6000 NSC TX33/2619Z TN22/2610Z BECMG 2605/2609 03009KT CAVOK

Waarnemingen en weersverwachtingen van meer dan 4000 vliegvelden (METAR en TAF).

De beschikbare stations zijn de gele en rode punten op de kaart.

Ga met uw muis naar het station om de naam te zien.

Klik dan om waarnemingen en weersverwachtingen te zien.

kaart wijzigen: klik op de groene knoppen met een zwart kruis om in te zoomen, op de groene knop met een streepje om uit te zoomen of op de groene pijlen voor aangrenzende kaarten.


METAR-TAF: